sensor_id;sensor_type;location;lat;lon;timestamp;temperature;humidity
20891;DHT22;10605;52.968;8.844;2023-04-25T00:01:30;8.20;99.90
20891;DHT22;10605;52.968;8.844;2023-04-25T00:03:57;8.00;99.90
20891;DHT22;10605;52.968;8.844;2023-04-25T00:06:23;7.70;99.90
20891;DHT22;10605;52.968;8.844;2023-04-25T00:08:52;7.70;99.90
20891;DHT22;10605;52.968;8.844;2023-04-25T00:11:18;7.70;99.90
20891;DHT22;10605;52.968;8.844;2023-04-25T00:13:44;7.70;99.90
20891;DHT22;10605;52.968;8.844;2023-04-25T00:16:11;7.70;99.90
20891;DHT22;10605;52.968;8.844;2023-04-25T00:18:38;7.60;99.90
20891;DHT22;10605;52.968;8.844;2023-04-25T00:21:05;7.60;99.90
20891;DHT22;10605;52.968;8.844;2023-04-25T00:23:31;7.60;99.90
20891;DHT22;10605;52.968;8.844;2023-04-25T00:25:57;7.50;99.90
20891;DHT22;10605;52.968;8.844;2023-04-25T00:28:22;7.50;99.90
20891;DHT22;10605;52.968;8.844;2023-04-25T00:30:48;7.50;99.90
20891;DHT22;10605;52.968;8.844;2023-04-25T00:33:14;7.60;99.90
20891;DHT22;10605;52.968;8.844;2023-04-25T00:35:39;7.60;99.90
20891;DHT22;10605;52.968;8.844;2023-04-25T00:38:05;7.70;99.90
20891;DHT22;10605;52.968;8.844;2023-04-25T00:40:30;7.70;99.90
20891;DHT22;10605;52.968;8.844;2023-04-25T00:42:56;7.60;99.90
20891;DHT22;10605;52.968;8.844;2023-04-25T00:45:28;7.60;99.90
20891;DHT22;10605;52.968;8.844;2023-04-25T00:47:57;7.70;99.90
20891;DHT22;10605;52.968;8.844;2023-04-25T00:50:24;7.60;99.90
20891;DHT22;10605;52.968;8.844;2023-04-25T00:52:50;7.60;99.90
20891;DHT22;10605;52.968;8.844;2023-04-25T00:55:16;7.60;99.90
20891;DHT22;10605;52.968;8.844;2023-04-25T00:57:42;7.50;99.90
20891;DHT22;10605;52.968;8.844;2023-04-25T01:00:09;7.50;99.90
20891;DHT22;10605;52.968;8.844;2023-04-25T01:02:36;7.50;99.90
20891;DHT22;10605;52.968;8.844;2023-04-25T01:05:03;7.50;99.90
20891;DHT22;10605;52.968;8.844;2023-04-25T01:07:29;7.50;99.90
20891;DHT22;10605;52.968;8.844;2023-04-25T01:09:55;7.40;99.90
20891;DHT22;10605;52.968;8.844;2023-04-25T01:12:21;7.40;99.90
20891;DHT22;10605;52.968;8.844;2023-04-25T01:14:47;7.40;99.90
20891;DHT22;10605;52.968;8.844;2023-04-25T01:17:13;7.40;99.90
20891;DHT22;10605;52.968;8.844;2023-04-25T01:19:40;7.40;99.90
20891;DHT22;10605;52.968;8.844;2023-04-25T01:22:06;7.40;99.90
20891;DHT22;10605;52.968;8.844;2023-04-25T01:24:32;7.40;99.90
20891;DHT22;10605;52.968;8.844;2023-04-25T01:27:00;7.30;99.90
20891;DHT22;10605;52.968;8.844;2023-04-25T01:29:28;7.20;99.90
20891;DHT22;10605;52.968;8.844;2023-04-25T01:31:54;7.20;99.90
20891;DHT22;10605;52.968;8.844;2023-04-25T01:34:20;7.20;99.90
20891;DHT22;10605;52.968;8.844;2023-04-25T01:36:49;7.30;99.90
20891;DHT22;10605;52.968;8.844;2023-04-25T01:39:15;7.30;99.90
20891;DHT22;10605;52.968;8.844;2023-04-25T01:41:41;7.30;99.90
20891;DHT22;10605;52.968;8.844;2023-04-25T01:44:07;7.20;99.90
20891;DHT22;10605;52.968;8.844;2023-04-25T01:46:34;7.30;99.90
20891;DHT22;10605;52.968;8.844;2023-04-25T01:48:59;7.20;99.90
20891;DHT22;10605;52.968;8.844;2023-04-25T01:51:25;7.20;99.90
20891;DHT22;10605;52.968;8.844;2023-04-25T01:53:51;7.20;99.90
20891;DHT22;10605;52.968;8.844;2023-04-25T01:56:18;7.20;99.90
20891;DHT22;10605;52.968;8.844;2023-04-25T01:58:44;7.20;99.90
20891;DHT22;10605;52.968;8.844;2023-04-25T02:01:10;7.10;99.90
20891;DHT22;10605;52.968;8.844;2023-04-25T02:03:35;7.10;99.90
20891;DHT22;10605;52.968;8.844;2023-04-25T02:06:01;7.20;99.90
20891;DHT22;10605;52.968;8.844;2023-04-25T02:08:27;7.20;99.90
20891;DHT22;10605;52.968;8.844;2023-04-25T02:10:53;7.10;99.90
20891;DHT22;10605;52.968;8.844;2023-04-25T02:13:18;7.10;99.90
20891;DHT22;10605;52.968;8.844;2023-04-25T02:15:44;7.10;99.90
20891;DHT22;10605;52.968;8.844;2023-04-25T02:18:10;7.10;99.90
20891;DHT22;10605;52.968;8.844;2023-04-25T02:20:36;7.10;99.90
20891;DHT22;10605;52.968;8.844;2023-04-25T02:23:02;7.00;99.90
20891;DHT22;10605;52.968;8.844;2023-04-25T02:25:28;7.00;99.90
20891;DHT22;10605;52.968;8.844;2023-04-25T02:27:54;7.00;99.90
20891;DHT22;10605;52.968;8.844;2023-04-25T02:30:20;7.00;99.90
20891;DHT22;10605;52.968;8.844;2023-04-25T02:32:46;7.00;99.90
20891;DHT22;10605;52.968;8.844;2023-04-25T02:35:11;6.90;99.90
20891;DHT22;10605;52.968;8.844;2023-04-25T02:37:38;6.80;99.90
20891;DHT22;10605;52.968;8.844;2023-04-25T02:40:05;6.80;99.90
20891;DHT22;10605;52.968;8.844;2023-04-25T02:42:30;6.70;99.90
20891;DHT22;10605;52.968;8.844;2023-04-25T02:44:56;6.60;99.90
20891;DHT22;10605;52.968;8.844;2023-04-25T02:47:22;6.70;99.90
20891;DHT22;10605;52.968;8.844;2023-04-25T02:49:48;6.60;99.90
20891;DHT22;10605;52.968;8.844;2023-04-25T02:52:13;6.60;99.90
20891;DHT22;10605;52.968;8.844;2023-04-25T02:54:42;6.60;99.90
20891;DHT22;10605;52.968;8.844;2023-04-25T02:57:08;6.60;99.90
20891;DHT22;10605;52.968;8.844;2023-04-25T02:59:34;6.60;99.90
20891;DHT22;10605;52.968;8.844;2023-04-25T03:02:00;6.50;99.90
20891;DHT22;10605;52.968;8.844;2023-04-25T03:04:25;6.40;99.90
20891;DHT22;10605;52.968;8.844;2023-04-25T03:06:51;6.40;99.90
20891;DHT22;10605;52.968;8.844;2023-04-25T03:09:17;6.40;99.90
20891;DHT22;10605;52.968;8.844;2023-04-25T03:11:44;6.30;99.90
20891;DHT22;10605;52.968;8.844;2023-04-25T03:14:10;6.40;99.90
20891;DHT22;10605;52.968;8.844;2023-04-25T03:16:36;6.40;99.90
20891;DHT22;10605;52.968;8.844;2023-04-25T03:19:02;6.40;99.90
20891;DHT22;10605;52.968;8.844;2023-04-25T03:21:28;6.50;99.90
20891;DHT22;10605;52.968;8.844;2023-04-25T03:23:54;6.50;99.90
20891;DHT22;10605;52.968;8.844;2023-04-25T03:26:20;6.40;99.90
20891;DHT22;10605;52.968;8.844;2023-04-25T03:28:46;6.50;99.90
20891;DHT22;10605;52.968;8.844;2023-04-25T03:31:11;6.50;99.90
20891;DHT22;10605;52.968;8.844;2023-04-25T03:33:37;6.50;99.90
20891;DHT22;10605;52.968;8.844;2023-04-25T03:36:03;6.40;99.90
20891;DHT22;10605;52.968;8.844;2023-04-25T03:38:28;6.40;99.90
20891;DHT22;10605;52.968;8.844;2023-04-25T03:40:54;6.40;99.90
20891;DHT22;10605;52.968;8.844;2023-04-25T03:43:21;6.40;99.90
20891;DHT22;10605;52.968;8.844;2023-04-25T03:45:47;6.40;99.90
20891;DHT22;10605;52.968;8.844;2023-04-25T03:48:12;6.30;99.90
20891;DHT22;10605;52.968;8.844;2023-04-25T03:50:38;6.30;99.90
20891;DHT22;10605;52.968;8.844;2023-04-25T03:53:04;6.30;99.90
20891;DHT22;10605;52.968;8.844;2023-04-25T03:55:30;6.30;99.90
20891;DHT22;10605;52.968;8.844;2023-04-25T03:57:57;6.30;99.90
20891;DHT22;10605;52.968;8.844;2023-04-25T04:00:23;6.30;99.90
20891;DHT22;10605;52.968;8.844;2023-04-25T04:02:49;6.30;99.90
20891;DHT22;10605;52.968;8.844;2023-04-25T04:05:15;6.30;99.90
20891;DHT22;10605;52.968;8.844;2023-04-25T04:07:40;6.30;99.90
20891;DHT22;10605;52.968;8.844;2023-04-25T04:10:11;6.20;99.90
20891;DHT22;10605;52.968;8.844;2023-04-25T04:12:37;6.20;99.90
20891;DHT22;10605;52.968;8.844;2023-04-25T04:15:06;6.20;99.90
20891;DHT22;10605;52.968;8.844;2023-04-25T04:17:32;6.20;99.90
20891;DHT22;10605;52.968;8.844;2023-04-25T04:19:58;6.20;99.90
20891;DHT22;10605;52.968;8.844;2023-04-25T04:22:24;6.20;99.90
20891;DHT22;10605;52.968;8.844;2023-04-25T04:24:49;6.10;99.90
20891;DHT22;10605;52.968;8.844;2023-04-25T04:27:18;6.10;99.90
20891;DHT22;10605;52.968;8.844;2023-04-25T04:29:45;6.00;99.90
20891;DHT22;10605;52.968;8.844;2023-04-25T04:32:12;6.00;99.90
20891;DHT22;10605;52.968;8.844;2023-04-25T04:34:38;6.00;99.90
20891;DHT22;10605;52.968;8.844;2023-04-25T04:37:05;6.10;99.90
20891;DHT22;10605;52.968;8.844;2023-04-25T04:39:34;6.20;99.90
20891;DHT22;10605;52.968;8.844;2023-04-25T04:42:00;6.30;99.90
20891;DHT22;10605;52.968;8.844;2023-04-25T04:44:30;6.50;99.90
20891;DHT22;10605;52.968;8.844;2023-04-25T04:46:58;6.60;99.90
20891;DHT22;10605;52.968;8.844;2023-04-25T04:49:24;6.80;99.90
20891;DHT22;10605;52.968;8.844;2023-04-25T04:51:50;7.00;99.90
20891;DHT22;10605;52.968;8.844;2023-04-25T04:54:16;7.10;99.90
20891;DHT22;10605;52.968;8.844;2023-04-25T04:56:41;7.30;99.90
20891;DHT22;10605;52.968;8.844;2023-04-25T04:59:07;7.50;99.90
20891;DHT22;10605;52.968;8.844;2023-04-25T05:01:33;7.60;99.90
20891;DHT22;10605;52.968;8.844;2023-04-25T05:04:00;7.70;99.90
20891;DHT22;10605;52.968;8.844;2023-04-25T05:06:27;7.90;99.90
20891;DHT22;10605;52.968;8.844;2023-04-25T05:08:54;7.80;99.90
20891;DHT22;10605;52.968;8.844;2023-04-25T05:11:21;7.50;99.90
20891;DHT22;10605;52.968;8.844;2023-04-25T05:13:52;7.40;99.90
20891;DHT22;10605;52.968;8.844;2023-04-25T05:16:17;7.40;99.90
20891;DHT22;10605;52.968;8.844;2023-04-25T05:18:43;7.40;99.90
20891;DHT22;10605;52.968;8.844;2023-04-25T05:21:09;7.40;99.90
20891;DHT22;10605;52.968;8.844;2023-04-25T05:23:35;7.40;99.90
20891;DHT22;10605;52.968;8.844;2023-04-25T05:26:00;7.40;99.90
20891;DHT22;10605;52.968;8.844;2023-04-25T05:28:29;7.50;99.90
20891;DHT22;10605;52.968;8.844;2023-04-25T05:30:55;7.50;99.90
20891;DHT22;10605;52.968;8.844;2023-04-25T05:33:20;7.50;99.90
20891;DHT22;10605;52.968;8.844;2023-04-25T05:35:46;7.70;99.90
20891;DHT22;10605;52.968;8.844;2023-04-25T05:38:12;7.80;99.90
20891;DHT22;10605;52.968;8.844;2023-04-25T05:40:38;7.70;99.90
20891;DHT22;10605;52.968;8.844;2023-04-25T05:43:03;7.70;99.90
20891;DHT22;10605;52.968;8.844;2023-04-25T05:45:29;7.50;99.90
20891;DHT22;10605;52.968;8.844;2023-04-25T05:47:55;7.60;99.90
20891;DHT22;10605;52.968;8.844;2023-04-25T05:50:20;7.50;99.90
20891;DHT22;10605;52.968;8.844;2023-04-25T05:52:46;7.60;99.90
20891;DHT22;10605;52.968;8.844;2023-04-25T05:55:12;8.60;99.90
20891;DHT22;10605;52.968;8.844;2023-04-25T05:57:37;9.50;99.90
20891;DHT22;10605;52.968;8.844;2023-04-25T06:00:08;9.60;99.90
20891;DHT22;10605;52.968;8.844;2023-04-25T06:02:34;10.50;99.90
20891;DHT22;10605;52.968;8.844;2023-04-25T06:05:00;11.50;99.90
20891;DHT22;10605;52.968;8.844;2023-04-25T06:07:29;11.80;99.90
20891;DHT22;10605;52.968;8.844;2023-04-25T06:09:56;12.40;99.90
20891;DHT22;10605;52.968;8.844;2023-04-25T06:12:21;12.50;99.90
20891;DHT22;10605;52.968;8.844;2023-04-25T06:14:47;12.70;99.90
20891;DHT22;10605;52.968;8.844;2023-04-25T06:17:13;13.00;99.90
20891;DHT22;10605;52.968;8.844;2023-04-25T06:19:38;12.90;99.90
20891;DHT22;10605;52.968;8.844;2023-04-25T06:22:04;13.10;99.90
20891;DHT22;10605;52.968;8.844;2023-04-25T06:24:30;13.30;99.90
20891;DHT22;10605;52.968;8.844;2023-04-25T06:26:55;13.70;99.90
20891;DHT22;10605;52.968;8.844;2023-04-25T06:29:21;14.10;99.90
20891;DHT22;10605;52.968;8.844;2023-04-25T06:31:47;14.20;99.90
20891;DHT22;10605;52.968;8.844;2023-04-25T06:34:12;14.20;99.90
20891;DHT22;10605;52.968;8.844;2023-04-25T06:36:38;13.90;99.90
20891;DHT22;10605;52.968;8.844;2023-04-25T06:39:04;14.20;99.90
20891;DHT22;10605;52.968;8.844;2023-04-25T06:41:30;14.20;99.90
20891;DHT22;10605;52.968;8.844;2023-04-25T06:43:55;14.70;99.90
20891;DHT22;10605;52.968;8.844;2023-04-25T06:46:21;14.80;99.90
20891;DHT22;10605;52.968;8.844;2023-04-25T06:48:47;15.70;99.90
20891;DHT22;10605;52.968;8.844;2023-04-25T06:51:14;14.50;99.90
20891;DHT22;10605;52.968;8.844;2023-04-25T06:53:40;13.90;99.90
20891;DHT22;10605;52.968;8.844;2023-04-25T06:56:06;14.50;99.90
20891;DHT22;10605;52.968;8.844;2023-04-25T06:58:31;14.80;99.90
20891;DHT22;10605;52.968;8.844;2023-04-25T07:00:57;14.90;99.90
20891;DHT22;10605;52.968;8.844;2023-04-25T07:03:23;14.30;99.90
20891;DHT22;10605;52.968;8.844;2023-04-25T07:05:49;13.20;99.90
20891;DHT22;10605;52.968;8.844;2023-04-25T07:08:15;12.20;99.90
20891;DHT22;10605;52.968;8.844;2023-04-25T07:10:41;12.00;99.90
20891;DHT22;10605;52.968;8.844;2023-04-25T07:13:06;11.90;99.90
20891;DHT22;10605;52.968;8.844;2023-04-25T07:15:32;11.60;99.90
20891;DHT22;10605;52.968;8.844;2023-04-25T07:17:58;11.10;99.90
20891;DHT22;10605;52.968;8.844;2023-04-25T07:20:24;10.70;99.90
20891;DHT22;10605;52.968;8.844;2023-04-25T07:22:49;10.70;99.90
20891;DHT22;10605;52.968;8.844;2023-04-25T07:25:16;10.50;99.90
20891;DHT22;10605;52.968;8.844;2023-04-25T07:27:41;10.70;99.90
20891;DHT22;10605;52.968;8.844;2023-04-25T07:30:08;11.10;99.90
20891;DHT22;10605;52.968;8.844;2023-04-25T07:32:33;12.20;99.90
20891;DHT22;10605;52.968;8.844;2023-04-25T07:34:59;13.40;99.90
20891;DHT22;10605;52.968;8.844;2023-04-25T07:37:25;14.20;99.90
20891;DHT22;10605;52.968;8.844;2023-04-25T07:39:51;15.00;99.90
20891;DHT22;10605;52.968;8.844;2023-04-25T07:42:17;16.10;99.90
20891;DHT22;10605;52.968;8.844;2023-04-25T07:44:42;16.70;99.90
20891;DHT22;10605;52.968;8.844;2023-04-25T07:47:09;17.20;99.30
20891;DHT22;10605;52.968;8.844;2023-04-25T07:49:36;17.90;92.30
20891;DHT22;10605;52.968;8.844;2023-04-25T07:52:03;17.10;90.00
20891;DHT22;10605;52.968;8.844;2023-04-25T07:54:29;14.60;95.20
20891;DHT22;10605;52.968;8.844;2023-04-25T07:56:55;13.70;99.40
20891;DHT22;10605;52.968;8.844;2023-04-25T07:59:21;12.40;99.90
20891;DHT22;10605;52.968;8.844;2023-04-25T08:01:47;11.30;99.90
20891;DHT22;10605;52.968;8.844;2023-04-25T08:04:13;11.10;99.90
20891;DHT22;10605;52.968;8.844;2023-04-25T08:06:39;11.20;99.90
20891;DHT22;10605;52.968;8.844;2023-04-25T08:09:06;11.00;99.90
20891;DHT22;10605;52.968;8.844;2023-04-25T08:11:31;11.80;99.90
20891;DHT22;10605;52.968;8.844;2023-04-25T08:13:57;14.00;99.90
20891;DHT22;10605;52.968;8.844;2023-04-25T08:16:22;15.40;99.10
20891;DHT22;10605;52.968;8.844;2023-04-25T08:18:49;17.10;95.20
20891;DHT22;10605;52.968;8.844;2023-04-25T08:21:15;17.60;89.60
20891;DHT22;10605;52.968;8.844;2023-04-25T08:23:41;15.60;87.20
20891;DHT22;10605;52.968;8.844;2023-04-25T08:26:07;14.30;95.70
20891;DHT22;10605;52.968;8.844;2023-04-25T08:28:32;13.00;97.10
20891;DHT22;10605;52.968;8.844;2023-04-25T08:30:58;12.30;99.90
20891;DHT22;10605;52.968;8.844;2023-04-25T08:33:24;11.50;99.90
20891;DHT22;10605;52.968;8.844;2023-04-25T08:35:50;11.30;99.90
20891;DHT22;10605;52.968;8.844;2023-04-25T08:38:16;11.10;99.90
20891;DHT22;10605;52.968;8.844;2023-04-25T08:40:43;10.50;99.90
20891;DHT22;10605;52.968;8.844;2023-04-25T08:43:09;10.40;99.90
20891;DHT22;10605;52.968;8.844;2023-04-25T08:45:40;10.30;99.90
20891;DHT22;10605;52.968;8.844;2023-04-25T08:48:11;10.10;99.90
20891;DHT22;10605;52.968;8.844;2023-04-25T08:50:50;9.40;99.90
20891;DHT22;10605;52.968;8.844;2023-04-25T08:53:17;8.90;99.90
20891;DHT22;10605;52.968;8.844;2023-04-25T08:55:48;9.10;99.90
20891;DHT22;10605;52.968;8.844;2023-04-25T08:58:15;9.70;99.90
20891;DHT22;10605;52.968;8.844;2023-04-25T09:00:41;9.80;99.90
20891;DHT22;10605;52.968;8.844;2023-04-25T09:03:07;10.40;99.90
20891;DHT22;10605;52.968;8.844;2023-04-25T09:05:33;10.90;99.90
20891;DHT22;10605;52.968;8.844;2023-04-25T09:08:00;11.90;99.90
20891;DHT22;10605;52.968;8.844;2023-04-25T09:10:26;12.20;99.90
20891;DHT22;10605;52.968;8.844;2023-04-25T09:13:13;12.20;99.90
20891;DHT22;10605;52.968;8.844;2023-04-25T09:15:58;12.20;99.90
20891;DHT22;10605;52.968;8.844;2023-04-25T09:18:34;13.20;99.90
20891;DHT22;10605;52.968;8.844;2023-04-25T09:21:12;15.10;96.80
20891;DHT22;10605;52.968;8.844;2023-04-25T09:23:40;15.80;95.80
20891;DHT22;10605;52.968;8.844;2023-04-25T09:26:07;15.50;95.00
20891;DHT22;10605;52.968;8.844;2023-04-25T09:28:33;15.30;94.20
20891;DHT22;10605;52.968;8.844;2023-04-25T09:31:00;14.80;92.90
20891;DHT22;10605;52.968;8.844;2023-04-25T09:33:31;15.90;91.80
20891;DHT22;10605;52.968;8.844;2023-04-25T09:36:05;14.70;87.40
20891;DHT22;10605;52.968;8.844;2023-04-25T09:38:39;14.10;90.10
20891;DHT22;10605;52.968;8.844;2023-04-25T09:41:06;14.10;93.00
20891;DHT22;10605;52.968;8.844;2023-04-25T09:43:32;14.10;92.50
20891;DHT22;10605;52.968;8.844;2023-04-25T09:45:58;13.70;94.40
20891;DHT22;10605;52.968;8.844;2023-04-25T09:48:27;12.90;96.70
20891;DHT22;10605;52.968;8.844;2023-04-25T09:51:10;12.30;99.90
20891;DHT22;10605;52.968;8.844;2023-04-25T09:53:41;12.10;99.90
20891;DHT22;10605;52.968;8.844;2023-04-25T09:56:09;12.20;99.40
20891;DHT22;10605;52.968;8.844;2023-04-25T09:58:36;12.90;99.60
20891;DHT22;10605;52.968;8.844;2023-04-25T10:01:04;12.90;98.10
20891;DHT22;10605;52.968;8.844;2023-04-25T10:03:32;14.10;97.60
20891;DHT22;10605;52.968;8.844;2023-04-25T10:06:03;15.40;95.30
20891;DHT22;10605;52.968;8.844;2023-04-25T10:08:37;14.70;93.10
20891;DHT22;10605;52.968;8.844;2023-04-25T10:11:07;16.70;92.20
20891;DHT22;10605;52.968;8.844;2023-04-25T10:13:34;19.40;82.90
20891;DHT22;10605;52.968;8.844;2023-04-25T10:16:02;20.40;76.10
20891;DHT22;10605;52.968;8.844;2023-04-25T10:18:29;19.80;68.40
20891;DHT22;10605;52.968;8.844;2023-04-25T10:21:00;21.20;66.00
20891;DHT22;10605;52.968;8.844;2023-04-25T10:23:27;21.70;61.80
20891;DHT22;10605;52.968;8.844;2023-04-25T10:25:54;22.10;54.30
20891;DHT22;10605;52.968;8.844;2023-04-25T10:28:20;19.40;57.70
20891;DHT22;10605;52.968;8.844;2023-04-25T10:31:02;21.70;52.10
20891;DHT22;10605;52.968;8.844;2023-04-25T10:33:35;16.90;59.70
20891;DHT22;10605;52.968;8.844;2023-04-25T10:36:15;14.80;67.00
20891;DHT22;10605;52.968;8.844;2023-04-25T10:38:43;12.50;82.30
20891;DHT22;10605;52.968;8.844;2023-04-25T10:41:10;10.50;95.60
20891;DHT22;10605;52.968;8.844;2023-04-25T10:43:42;9.70;99.90
20891;DHT22;10605;52.968;8.844;2023-04-25T10:46:19;9.70;99.90
20891;DHT22;10605;52.968;8.844;2023-04-25T10:48:52;10.30;99.90
20891;DHT22;10605;52.968;8.844;2023-04-25T10:51:23;11.00;99.90
20891;DHT22;10605;52.968;8.844;2023-04-25T10:53:57;11.60;99.90
20891;DHT22;10605;52.968;8.844;2023-04-25T10:56:26;12.00;99.90
20891;DHT22;10605;52.968;8.844;2023-04-25T10:58:52;13.10;99.90
20891;DHT22;10605;52.968;8.844;2023-04-25T11:01:45;14.20;99.90
20891;DHT22;10605;52.968;8.844;2023-04-25T11:04:30;16.40;99.90
20891;DHT22;10605;52.968;8.844;2023-04-25T11:09:45;16.70;99.90
20891;DHT22;10605;52.968;8.844;2023-04-25T11:12:11;16.30;99.90
20891;DHT22;10605;52.968;8.844;2023-04-25T11:14:38;16.30;97.20
20891;DHT22;10605;52.968;8.844;2023-04-25T11:17:03;16.20;95.90
20891;DHT22;10605;52.968;8.844;2023-04-25T11:19:29;18.90;94.20
20891;DHT22;10605;52.968;8.844;2023-04-25T11:22:00;21.50;84.20
20891;DHT22;10605;52.968;8.844;2023-04-25T11:24:27;22.90;75.00
20891;DHT22;10605;52.968;8.844;2023-04-25T11:26:53;23.20;61.00
20891;DHT22;10605;52.968;8.844;2023-04-25T11:29:22;21.80;56.20
20891;DHT22;10605;52.968;8.844;2023-04-25T11:31:48;21.20;54.30
20891;DHT22;10605;52.968;8.844;2023-04-25T11:34:18;20.30;60.30
20891;DHT22;10605;52.968;8.844;2023-04-25T11:36:45;22.10;55.60
20891;DHT22;10605;52.968;8.844;2023-04-25T11:39:11;23.30;53.10
20891;DHT22;10605;52.968;8.844;2023-04-25T11:41:38;22.50;48.30
20891;DHT22;10605;52.968;8.844;2023-04-25T11:44:04;18.10;52.40
20891;DHT22;10605;52.968;8.844;2023-04-25T11:46:30;16.10;58.70
20891;DHT22;10605;52.968;8.844;2023-04-25T11:48:57;13.80;71.20
20891;DHT22;10605;52.968;8.844;2023-04-25T11:51:23;12.50;89.30
20891;DHT22;10605;52.968;8.844;2023-04-25T11:53:48;11.30;95.80
20891;DHT22;10605;52.968;8.844;2023-04-25T11:56:14;11.90;98.80
20891;DHT22;10605;52.968;8.844;2023-04-25T11:59:13;12.90;99.20
20891;DHT22;10605;52.968;8.844;2023-04-25T12:01:40;13.90;98.20
20891;DHT22;10605;52.968;8.844;2023-04-25T12:04:20;15.30;96.30
20891;DHT22;10605;52.968;8.844;2023-04-25T12:06:47;18.30;89.30
20891;DHT22;10605;52.968;8.844;2023-04-25T12:09:14;21.20;68.20
20891;DHT22;10605;52.968;8.844;2023-04-25T12:11:48;22.40;61.20
20891;DHT22;10605;52.968;8.844;2023-04-25T12:14:34;22.50;52.10
20891;DHT22;10605;52.968;8.844;2023-04-25T12:17:02;22.90;49.40
20891;DHT22;10605;52.968;8.844;2023-04-25T12:19:47;21.70;49.60
20891;DHT22;10605;52.968;8.844;2023-04-25T12:22:23;22.60;49.30
20891;DHT22;10605;52.968;8.844;2023-04-25T12:24:49;22.30;48.10
20891;DHT22;10605;52.968;8.844;2023-04-25T12:27:16;21.00;49.30
20891;DHT22;10605;52.968;8.844;2023-04-25T12:29:51;20.80;51.00
20891;DHT22;10605;52.968;8.844;2023-04-25T12:32:17;16.30;61.00
20891;DHT22;10605;52.968;8.844;2023-04-25T12:34:43;14.00;74.10
20891;DHT22;10605;52.968;8.844;2023-04-25T12:37:09;12.60;86.00
20891;DHT22;10605;52.968;8.844;2023-04-25T12:39:35;11.90;92.70
20891;DHT22;10605;52.968;8.844;2023-04-25T12:42:00;10.90;92.40
20891;DHT22;10605;52.968;8.844;2023-04-25T12:44:26;10.80;95.30
20891;DHT22;10605;52.968;8.844;2023-04-25T12:46:52;12.30;95.20
20891;DHT22;10605;52.968;8.844;2023-04-25T12:49:18;12.50;90.40
20891;DHT22;10605;52.968;8.844;2023-04-25T12:51:43;14.20;89.90
20891;DHT22;10605;52.968;8.844;2023-04-25T12:54:09;19.80;65.40
20891;DHT22;10605;52.968;8.844;2023-04-25T12:56:35;21.50;54.50
20891;DHT22;10605;52.968;8.844;2023-04-25T12:59:02;22.50;44.60
20891;DHT22;10605;52.968;8.844;2023-04-25T13:01:31;22.80;44.00
20891;DHT22;10605;52.968;8.844;2023-04-25T13:03:57;22.10;43.30
20891;DHT22;10605;52.968;8.844;2023-04-25T13:06:22;22.90;45.00
20891;DHT22;10605;52.968;8.844;2023-04-25T13:08:48;21.00;43.90
20891;DHT22;10605;52.968;8.844;2023-04-25T13:11:14;18.40;48.80
20891;DHT22;10605;52.968;8.844;2023-04-25T13:13:40;16.30;57.20
20891;DHT22;10605;52.968;8.844;2023-04-25T13:16:07;14.80;61.70
20891;DHT22;10605;52.968;8.844;2023-04-25T13:18:36;14.00;69.70
20891;DHT22;10605;52.968;8.844;2023-04-25T13:21:01;13.30;74.70
20891;DHT22;10605;52.968;8.844;2023-04-25T13:23:29;12.60;73.60
20891;DHT22;10605;52.968;8.844;2023-04-25T13:26:00;12.30;77.60
20891;DHT22;10605;52.968;8.844;2023-04-25T13:28:27;11.80;86.60
20891;DHT22;10605;52.968;8.844;2023-04-25T13:30:53;12.10;88.70
20891;DHT22;10605;52.968;8.844;2023-04-25T13:33:19;12.80;90.40
20891;DHT22;10605;52.968;8.844;2023-04-25T13:35:46;12.80;90.10
20891;DHT22;10605;52.968;8.844;2023-04-25T13:38:20;12.80;92.20
20891;DHT22;10605;52.968;8.844;2023-04-25T13:40:46;12.30;93.20
20891;DHT22;10605;52.968;8.844;2023-04-25T13:43:11;12.40;97.50
20891;DHT22;10605;52.968;8.844;2023-04-25T13:45:37;12.10;94.90
20891;DHT22;10605;52.968;8.844;2023-04-25T13:48:03;11.80;94.00
20891;DHT22;10605;52.968;8.844;2023-04-25T13:50:28;11.70;95.10
20891;DHT22;10605;52.968;8.844;2023-04-25T13:52:54;11.50;94.20
20891;DHT22;10605;52.968;8.844;2023-04-25T13:55:20;11.50;93.50
20891;DHT22;10605;52.968;8.844;2023-04-25T13:57:46;11.80;93.30
20891;DHT22;10605;52.968;8.844;2023-04-25T14:00:18;11.60;92.00
20891;DHT22;10605;52.968;8.844;2023-04-25T14:02:43;12.00;91.80
20891;DHT22;10605;52.968;8.844;2023-04-25T14:05:09;12.60;90.80
20891;DHT22;10605;52.968;8.844;2023-04-25T14:07:38;12.50;87.90
20891;DHT22;10605;52.968;8.844;2023-04-25T14:10:04;12.40;86.80
20891;DHT22;10605;52.968;8.844;2023-04-25T14:12:32;12.30;86.20
20891;DHT22;10605;52.968;8.844;2023-04-25T14:14:58;12.40;81.20
20891;DHT22;10605;52.968;8.844;2023-04-25T14:17:23;12.10;80.20
20891;DHT22;10605;52.968;8.844;2023-04-25T14:19:50;12.00;80.60
20891;DHT22;10605;52.968;8.844;2023-04-25T14:22:15;12.00;80.10
20891;DHT22;10605;52.968;8.844;2023-04-25T14:24:41;11.80;79.90
20891;DHT22;10605;52.968;8.844;2023-04-25T14:27:07;12.10;82.30
20891;DHT22;10605;52.968;8.844;2023-04-25T14:29:34;12.40;81.50
20891;DHT22;10605;52.968;8.844;2023-04-25T14:32:00;12.60;85.60
20891;DHT22;10605;52.968;8.844;2023-04-25T14:34:26;12.70;87.80
20891;DHT22;10605;52.968;8.844;2023-04-25T14:36:51;12.60;90.10
20891;DHT22;10605;52.968;8.844;2023-04-25T14:39:18;12.40;89.10
20891;DHT22;10605;52.968;8.844;2023-04-25T14:41:44;11.80;90.30
20891;DHT22;10605;52.968;8.844;2023-04-25T14:44:09;10.90;91.20
20891;DHT22;10605;52.968;8.844;2023-04-25T14:46:35;10.70;93.90
20891;DHT22;10605;52.968;8.844;2023-04-25T14:49:01;10.40;97.40
20891;DHT22;10605;52.968;8.844;2023-04-25T14:51:27;10.20;99.90
20891;DHT22;10605;52.968;8.844;2023-04-25T14:53:53;9.80;99.90
20891;DHT22;10605;52.968;8.844;2023-04-25T14:56:19;9.60;99.90
20891;DHT22;10605;52.968;8.844;2023-04-25T14:58:44;9.60;99.90
20891;DHT22;10605;52.968;8.844;2023-04-25T15:01:11;9.60;99.90
20891;DHT22;10605;52.968;8.844;2023-04-25T15:03:39;10.10;99.90
20891;DHT22;10605;52.968;8.844;2023-04-25T15:06:05;10.60;99.90
20891;DHT22;10605;52.968;8.844;2023-04-25T15:08:31;11.40;99.90
20891;DHT22;10605;52.968;8.844;2023-04-25T15:10:58;11.50;99.90
20891;DHT22;10605;52.968;8.844;2023-04-25T15:13:24;11.60;99.90
20891;DHT22;10605;52.968;8.844;2023-04-25T15:15:50;11.60;99.90
20891;DHT22;10605;52.968;8.844;2023-04-25T15:18:20;11.10;99.90
20891;DHT22;10605;52.968;8.844;2023-04-25T15:20:51;11.00;99.90
20891;DHT22;10605;52.968;8.844;2023-04-25T15:23:18;10.80;99.90
20891;DHT22;10605;52.968;8.844;2023-04-25T15:25:44;11.00;99.90
20891;DHT22;10605;52.968;8.844;2023-04-25T15:28:10;10.80;99.90
20891;DHT22;10605;52.968;8.844;2023-04-25T15:30:36;10.40;99.90
20891;DHT22;10605;52.968;8.844;2023-04-25T15:33:02;10.50;99.90
20891;DHT22;10605;52.968;8.844;2023-04-25T15:35:28;10.70;99.90
20891;DHT22;10605;52.968;8.844;2023-04-25T15:37:53;10.30;99.90
20891;DHT22;10605;52.968;8.844;2023-04-25T15:40:19;10.20;99.90